Aviation Digital Data Service (ADDS)

Output produced by METARs form (2047 UTC 30 August 2016)
found at http://aviationweather.gov/adds/metars/
 
KPBG 301733Z 3018/3118 15010KT P6SM SCT045 SCT100 BKN200 
     FM310000 VRB03KT P6SM SCT070 BKN150 BKN200 
     FM310800 VRB03KT P6SM VCSH OVC050 
     FM311400 14007KT P6SM VCSH SCT050 OVC100